sensor_id;sensor_type;location;lat;lon;timestamp;P1;durP1;ratioP1;P2;durP2;ratioP2
20910;SDS011;10615;42.702;23.314;2023-12-20T00:00:32;187.07;;;115.72;;
20910;SDS011;10615;42.702;23.314;2023-12-20T00:01:33;193.30;;;114.88;;
20910;SDS011;10615;42.702;23.314;2023-12-20T00:02:34;197.80;;;118.13;;
20910;SDS011;10615;42.702;23.314;2023-12-20T00:03:35;197.75;;;119.78;;
20910;SDS011;10615;42.702;23.314;2023-12-20T00:04:35;188.95;;;114.93;;
20910;SDS011;10615;42.702;23.314;2023-12-20T00:05:36;183.15;;;112.35;;
20910;SDS011;10615;42.702;23.314;2023-12-20T00:06:41;193.13;;;116.50;;
20910;SDS011;10615;42.702;23.314;2023-12-20T00:07:41;186.10;;;114.55;;
20910;SDS011;10615;42.702;23.314;2023-12-20T00:08:42;187.88;;;113.68;;
20910;SDS011;10615;42.702;23.314;2023-12-20T00:09:44;187.57;;;114.93;;
20910;SDS011;10615;42.702;23.314;2023-12-20T00:10:44;191.38;;;115.28;;
20910;SDS011;10615;42.702;23.314;2023-12-20T00:11:45;185.98;;;113.28;;
20910;SDS011;10615;42.702;23.314;2023-12-20T00:12:46;182.07;;;113.32;;
20910;SDS011;10615;42.702;23.314;2023-12-20T00:13:47;184.75;;;111.45;;
20910;SDS011;10615;42.702;23.314;2023-12-20T00:14:47;182.10;;;111.13;;
20910;SDS011;10615;42.702;23.314;2023-12-20T00:15:48;175.65;;;107.32;;
20910;SDS011;10615;42.702;23.314;2023-12-20T00:16:49;179.77;;;107.65;;
20910;SDS011;10615;42.702;23.314;2023-12-20T00:17:49;179.25;;;108.13;;
20910;SDS011;10615;42.702;23.314;2023-12-20T00:18:50;173.15;;;106.35;;
20910;SDS011;10615;42.702;23.314;2023-12-20T00:19:51;175.15;;;107.68;;
20910;SDS011;10615;42.702;23.314;2023-12-20T00:20:52;168.23;;;105.18;;
20910;SDS011;10615;42.702;23.314;2023-12-20T00:21:52;172.18;;;105.20;;
20910;SDS011;10615;42.702;23.314;2023-12-20T00:22:56;165.30;;;103.88;;
20910;SDS011;10615;42.702;23.314;2023-12-20T00:23:57;173.38;;;104.03;;
20910;SDS011;10615;42.702;23.314;2023-12-20T00:24:58;171.77;;;105.18;;
20910;SDS011;10615;42.702;23.314;2023-12-20T00:25:59;173.43;;;107.47;;
20910;SDS011;10615;42.702;23.314;2023-12-20T00:27:00;180.45;;;106.10;;
20910;SDS011;10615;42.702;23.314;2023-12-20T00:28:00;174.75;;;107.18;;
20910;SDS011;10615;42.702;23.314;2023-12-20T00:29:02;175.68;;;106.07;;
20910;SDS011;10615;42.702;23.314;2023-12-20T00:30:03;171.00;;;107.13;;
20910;SDS011;10615;42.702;23.314;2023-12-20T00:31:04;175.68;;;107.65;;
20910;SDS011;10615;42.702;23.314;2023-12-20T00:32:05;173.43;;;107.15;;
20910;SDS011;10615;42.702;23.314;2023-12-20T00:33:06;177.30;;;107.75;;
20910;SDS011;10615;42.702;23.314;2023-12-20T00:34:06;167.90;;;104.60;;
20910;SDS011;10615;42.702;23.314;2023-12-20T00:35:07;169.45;;;104.18;;
20910;SDS011;10615;42.702;23.314;2023-12-20T00:36:08;168.52;;;103.70;;
20910;SDS011;10615;42.702;23.314;2023-12-20T00:37:08;172.88;;;103.25;;
20910;SDS011;10615;42.702;23.314;2023-12-20T00:38:09;173.43;;;106.88;;
20910;SDS011;10615;42.702;23.314;2023-12-20T00:39:11;178.65;;;109.20;;
20910;SDS011;10615;42.702;23.314;2023-12-20T00:40:12;179.52;;;110.35;;
20910;SDS011;10615;42.702;23.314;2023-12-20T00:41:12;184.82;;;111.70;;
20910;SDS011;10615;42.702;23.314;2023-12-20T00:42:13;182.80;;;109.88;;
20910;SDS011;10615;42.702;23.314;2023-12-20T00:43:14;181.60;;;108.28;;
20910;SDS011;10615;42.702;23.314;2023-12-20T00:44:14;173.90;;;107.65;;
20910;SDS011;10615;42.702;23.314;2023-12-20T00:45:15;177.82;;;108.63;;
20910;SDS011;10615;42.702;23.314;2023-12-20T00:46:16;172.48;;;108.53;;
20910;SDS011;10615;42.702;23.314;2023-12-20T00:47:17;171.02;;;106.50;;
20910;SDS011;10615;42.702;23.314;2023-12-20T00:48:17;176.32;;;107.65;;
20910;SDS011;10615;42.702;23.314;2023-12-20T00:49:18;180.57;;;108.32;;
20910;SDS011;10615;42.702;23.314;2023-12-20T00:50:19;171.50;;;105.30;;
20910;SDS011;10615;42.702;23.314;2023-12-20T00:51:21;173.95;;;106.13;;
20910;SDS011;10615;42.702;23.314;2023-12-20T00:52:22;169.48;;;106.13;;
20910;SDS011;10615;42.702;23.314;2023-12-20T00:53:23;179.07;;;105.22;;
20910;SDS011;10615;42.702;23.314;2023-12-20T00:54:24;174.90;;;104.38;;
20910;SDS011;10615;42.702;23.314;2023-12-20T00:55:25;171.48;;;103.70;;
20910;SDS011;10615;42.702;23.314;2023-12-20T00:56:26;172.70;;;106.78;;
20910;SDS011;10615;42.702;23.314;2023-12-20T00:57:27;173.95;;;105.70;;
20910;SDS011;10615;42.702;23.314;2023-12-20T00:58:27;177.00;;;103.75;;
20910;SDS011;10615;42.702;23.314;2023-12-20T00:59:28;168.43;;;103.80;;
20910;SDS011;10615;42.702;23.314;2023-12-20T01:00:29;177.57;;;106.05;;
20910;SDS011;10615;42.702;23.314;2023-12-20T01:01:29;167.57;;;102.43;;
20910;SDS011;10615;42.702;23.314;2023-12-20T01:02:33;175.25;;;103.28;;
20910;SDS011;10615;42.702;23.314;2023-12-20T01:03:33;174.35;;;106.75;;
20910;SDS011;10615;42.702;23.314;2023-12-20T01:04:34;171.65;;;106.38;;
20910;SDS011;10615;42.702;23.314;2023-12-20T01:05:35;176.55;;;104.57;;
20910;SDS011;10615;42.702;23.314;2023-12-20T01:06:35;170.95;;;103.93;;
20910;SDS011;10615;42.702;23.314;2023-12-20T01:07:36;174.30;;;105.25;;
20910;SDS011;10615;42.702;23.314;2023-12-20T01:08:37;183.48;;;109.88;;
20910;SDS011;10615;42.702;23.314;2023-12-20T01:09:38;181.82;;;109.50;;
20910;SDS011;10615;42.702;23.314;2023-12-20T01:10:39;177.30;;;108.65;;
20910;SDS011;10615;42.702;23.314;2023-12-20T01:11:40;189.93;;;112.85;;
20910;SDS011;10615;42.702;23.314;2023-12-20T01:12:41;187.55;;;110.32;;
20910;SDS011;10615;42.702;23.314;2023-12-20T01:13:42;177.27;;;108.03;;
20910;SDS011;10615;42.702;23.314;2023-12-20T01:14:43;183.38;;;112.00;;
20910;SDS011;10615;42.702;23.314;2023-12-20T01:15:43;189.55;;;112.00;;
20910;SDS011;10615;42.702;23.314;2023-12-20T01:16:44;192.23;;;114.70;;
20910;SDS011;10615;42.702;23.314;2023-12-20T01:17:45;182.40;;;112.18;;
20910;SDS011;10615;42.702;23.314;2023-12-20T01:18:46;181.45;;;110.07;;
20910;SDS011;10615;42.702;23.314;2023-12-20T01:19:47;188.25;;;112.15;;
20910;SDS011;10615;42.702;23.314;2023-12-20T01:20:47;189.45;;;113.28;;
20910;SDS011;10615;42.702;23.314;2023-12-20T01:21:48;194.20;;;111.18;;
20910;SDS011;10615;42.702;23.314;2023-12-20T01:22:49;181.90;;;110.55;;
20910;SDS011;10615;42.702;23.314;2023-12-20T01:23:50;186.30;;;111.90;;
20910;SDS011;10615;42.702;23.314;2023-12-20T01:24:50;183.10;;;111.38;;
20910;SDS011;10615;42.702;23.314;2023-12-20T01:25:51;190.93;;;109.43;;
20910;SDS011;10615;42.702;23.314;2023-12-20T01:26:52;188.80;;;112.25;;
20910;SDS011;10615;42.702;23.314;2023-12-20T01:27:52;184.60;;;109.53;;
20910;SDS011;10615;42.702;23.314;2023-12-20T01:28:53;189.27;;;112.22;;
20910;SDS011;10615;42.702;23.314;2023-12-20T01:29:54;177.27;;;109.05;;
20910;SDS011;10615;42.702;23.314;2023-12-20T01:30:54;185.07;;;109.53;;
20910;SDS011;10615;42.702;23.314;2023-12-20T01:31:55;177.43;;;107.57;;
20910;SDS011;10615;42.702;23.314;2023-12-20T01:32:56;176.45;;;108.65;;
20910;SDS011;10615;42.702;23.314;2023-12-20T01:33:57;182.80;;;108.45;;
20910;SDS011;10615;42.702;23.314;2023-12-20T01:34:57;175.82;;;105.20;;
20910;SDS011;10615;42.702;23.314;2023-12-20T01:35:58;177.73;;;106.20;;
20910;SDS011;10615;42.702;23.314;2023-12-20T01:36:59;190.35;;;109.80;;
20910;SDS011;10615;42.702;23.314;2023-12-20T01:38:00;179.30;;;108.00;;
20910;SDS011;10615;42.702;23.314;2023-12-20T01:39:01;177.93;;;106.53;;
20910;SDS011;10615;42.702;23.314;2023-12-20T01:40:01;179.93;;;105.07;;
20910;SDS011;10615;42.702;23.314;2023-12-20T01:41:02;178.35;;;105.07;;
20910;SDS011;10615;42.702;23.314;2023-12-20T01:42:03;174.57;;;104.50;;
20910;SDS011;10615;42.702;23.314;2023-12-20T01:43:08;180.32;;;107.15;;
20910;SDS011;10615;42.702;23.314;2023-12-20T01:44:09;181.13;;;107.68;;
20910;SDS011;10615;42.702;23.314;2023-12-20T01:45:10;176.13;;;105.70;;
20910;SDS011;10615;42.702;23.314;2023-12-20T01:46:11;178.77;;;110.70;;
20910;SDS011;10615;42.702;23.314;2023-12-20T01:47:12;190.90;;;110.38;;
20910;SDS011;10615;42.702;23.314;2023-12-20T01:48:13;177.85;;;109.07;;
20910;SDS011;10615;42.702;23.314;2023-12-20T01:49:15;178.50;;;102.50;;
20910;SDS011;10615;42.702;23.314;2023-12-20T01:50:16;175.82;;;104.53;;
20910;SDS011;10615;42.702;23.314;2023-12-20T01:51:17;176.85;;;107.65;;
20910;SDS011;10615;42.702;23.314;2023-12-20T01:52:19;179.82;;;104.80;;
20910;SDS011;10615;42.702;23.314;2023-12-20T01:53:21;170.15;;;104.65;;
20910;SDS011;10615;42.702;23.314;2023-12-20T01:54:24;174.30;;;103.85;;
20910;SDS011;10615;42.702;23.314;2023-12-20T01:55:25;171.05;;;103.47;;
20910;SDS011;10615;42.702;23.314;2023-12-20T01:56:28;179.07;;;104.35;;
20910;SDS011;10615;42.702;23.314;2023-12-20T01:57:30;174.32;;;100.55;;
20910;SDS011;10615;42.702;23.314;2023-12-20T01:58:31;171.82;;;99.60;;
20910;SDS011;10615;42.702;23.314;2023-12-20T01:59:32;170.18;;;102.88;;
20910;SDS011;10615;42.702;23.314;2023-12-20T02:00:34;175.65;;;102.57;;
20910;SDS011;10615;42.702;23.314;2023-12-20T02:01:36;172.38;;;100.90;;
20910;SDS011;10615;42.702;23.314;2023-12-20T02:02:38;174.60;;;100.60;;
20910;SDS011;10615;42.702;23.314;2023-12-20T02:03:41;171.60;;;100.90;;
20910;SDS011;10615;42.702;23.314;2023-12-20T02:04:42;173.98;;;101.75;;
20910;SDS011;10615;42.702;23.314;2023-12-20T02:05:43;172.70;;;100.88;;
20910;SDS011;10615;42.702;23.314;2023-12-20T02:06:45;165.25;;;97.47;;
20910;SDS011;10615;42.702;23.314;2023-12-20T02:07:46;169.65;;;99.07;;
20910;SDS011;10615;42.702;23.314;2023-12-20T02:08:47;160.30;;;96.57;;
20910;SDS011;10615;42.702;23.314;2023-12-20T02:09:50;167.48;;;98.28;;
20910;SDS011;10615;42.702;23.314;2023-12-20T02:10:50;169.02;;;97.03;;
20910;SDS011;10615;42.702;23.314;2023-12-20T02:11:51;166.93;;;97.18;;
20910;SDS011;10615;42.702;23.314;2023-12-20T02:12:52;158.05;;;94.38;;
20910;SDS011;10615;42.702;23.314;2023-12-20T02:13:53;163.25;;;95.28;;
20910;SDS011;10615;42.702;23.314;2023-12-20T02:14:54;148.52;;;89.97;;
20910;SDS011;10615;42.702;23.314;2023-12-20T02:15:54;155.55;;;92.57;;
20910;SDS011;10615;42.702;23.314;2023-12-20T02:16:55;160.75;;;93.10;;
20910;SDS011;10615;42.702;23.314;2023-12-20T02:17:56;165.93;;;94.18;;
20910;SDS011;10615;42.702;23.314;2023-12-20T02:18:57;162.80;;;91.95;;
20910;SDS011;10615;42.702;23.314;2023-12-20T02:19:58;167.98;;;93.40;;
20910;SDS011;10615;42.702;23.314;2023-12-20T02:20:59;170.40;;;95.38;;
20910;SDS011;10615;42.702;23.314;2023-12-20T02:22:09;170.35;;;92.75;;
20910;SDS011;10615;42.702;23.314;2023-12-20T02:23:10;166.88;;;93.03;;
20910;SDS011;10615;42.702;23.314;2023-12-20T02:24:11;159.00;;;88.78;;
20910;SDS011;10615;42.702;23.314;2023-12-20T02:25:12;162.73;;;90.13;;
20910;SDS011;10615;42.702;23.314;2023-12-20T02:26:13;157.68;;;85.38;;
20910;SDS011;10615;42.702;23.314;2023-12-20T02:27:14;145.93;;;81.38;;
20910;SDS011;10615;42.702;23.314;2023-12-20T02:28:17;132.57;;;73.78;;
20910;SDS011;10615;42.702;23.314;2023-12-20T02:29:19;127.22;;;70.78;;
20910;SDS011;10615;42.702;23.314;2023-12-20T02:30:19;118.70;;;65.70;;
20910;SDS011;10615;42.702;23.314;2023-12-20T02:31:21;114.40;;;63.05;;
20910;SDS011;10615;42.702;23.314;2023-12-20T02:32:22;111.03;;;59.92;;
20910;SDS011;10615;42.702;23.314;2023-12-20T02:33:27;105.05;;;58.83;;
20910;SDS011;10615;42.702;23.314;2023-12-20T02:34:28;98.20;;;56.75;;
20910;SDS011;10615;42.702;23.314;2023-12-20T02:35:29;105.13;;;56.40;;
20910;SDS011;10615;42.702;23.314;2023-12-20T02:36:30;101.97;;;56.50;;
20910;SDS011;10615;42.702;23.314;2023-12-20T02:37:32;103.03;;;57.58;;
20910;SDS011;10615;42.702;23.314;2023-12-20T02:38:33;105.53;;;56.70;;
20910;SDS011;10615;42.702;23.314;2023-12-20T02:39:34;102.55;;;55.90;;
20910;SDS011;10615;42.702;23.314;2023-12-20T02:40:35;105.20;;;56.95;;
20910;SDS011;10615;42.702;23.314;2023-12-20T02:41:35;102.78;;;57.05;;
20910;SDS011;10615;42.702;23.314;2023-12-20T02:42:36;106.53;;;55.50;;
20910;SDS011;10615;42.702;23.314;2023-12-20T02:43:37;105.55;;;56.47;;
20910;SDS011;10615;42.702;23.314;2023-12-20T02:44:38;113.35;;;60.05;;
20910;SDS011;10615;42.702;23.314;2023-12-20T02:45:38;110.43;;;58.85;;
20910;SDS011;10615;42.702;23.314;2023-12-20T02:46:39;112.63;;;59.20;;
20910;SDS011;10615;42.702;23.314;2023-12-20T02:47:40;113.15;;;56.38;;
20910;SDS011;10615;42.702;23.314;2023-12-20T02:48:40;106.65;;;56.65;;
20910;SDS011;10615;42.702;23.314;2023-12-20T02:49:41;115.00;;;58.28;;
20910;SDS011;10615;42.702;23.314;2023-12-20T02:50:42;109.90;;;57.90;;
20910;SDS011;10615;42.702;23.314;2023-12-20T02:51:43;108.78;;;57.25;;
20910;SDS011;10615;42.702;23.314;2023-12-20T02:52:44;104.30;;;56.63;;
20910;SDS011;10615;42.702;23.314;2023-12-20T02:53:46;111.80;;;56.80;;
20910;SDS011;10615;42.702;23.314;2023-12-20T02:54:46;104.35;;;57.15;;
20910;SDS011;10615;42.702;23.314;2023-12-20T02:55:47;115.80;;;58.03;;
20910;SDS011;10615;42.702;23.314;2023-12-20T02:56:48;113.38;;;58.15;;
20910;SDS011;10615;42.702;23.314;2023-12-20T02:57:49;111.38;;;57.72;;
20910;SDS011;10615;42.702;23.314;2023-12-20T02:58:49;112.00;;;57.45;;
20910;SDS011;10615;42.702;23.314;2023-12-20T02:59:50;113.78;;;58.97;;
20910;SDS011;10615;42.702;23.314;2023-12-20T03:00:51;113.85;;;59.22;;
20910;SDS011;10615;42.702;23.314;2023-12-20T03:01:51;112.68;;;57.15;;
20910;SDS011;10615;42.702;23.314;2023-12-20T03:02:52;114.38;;;57.90;;
20910;SDS011;10615;42.702;23.314;2023-12-20T03:03:53;113.63;;;57.47;;
20910;SDS011;10615;42.702;23.314;2023-12-20T03:04:54;108.72;;;56.45;;
20910;SDS011;10615;42.702;23.314;2023-12-20T03:05:55;115.40;;;55.78;;
20910;SDS011;10615;42.702;23.314;2023-12-20T03:06:56;113.72;;;56.83;;
20910;SDS011;10615;42.702;23.314;2023-12-20T03:07:56;114.22;;;56.92;;
20910;SDS011;10615;42.702;23.314;2023-12-20T03:08:57;111.45;;;55.60;;
20910;SDS011;10615;42.702;23.314;2023-12-20T03:09:58;119.25;;;57.63;;
20910;SDS011;10615;42.702;23.314;2023-12-20T03:10:59;115.32;;;55.95;;
20910;SDS011;10615;42.702;23.314;2023-12-20T03:12:00;108.80;;;54.80;;
20910;SDS011;10615;42.702;23.314;2023-12-20T03:13:00;116.05;;;57.80;;
20910;SDS011;10615;42.702;23.314;2023-12-20T03:14:01;105.68;;;54.10;;
20910;SDS011;10615;42.702;23.314;2023-12-20T03:15:02;104.65;;;55.55;;
20910;SDS011;10615;42.702;23.314;2023-12-20T03:16:09;109.57;;;55.53;;
20910;SDS011;10615;42.702;23.314;2023-12-20T03:17:11;110.32;;;55.28;;
20910;SDS011;10615;42.702;23.314;2023-12-20T03:18:11;112.50;;;53.72;;
20910;SDS011;10615;42.702;23.314;2023-12-20T03:19:12;108.07;;;53.05;;
20910;SDS011;10615;42.702;23.314;2023-12-20T03:20:13;116.53;;;54.08;;
20910;SDS011;10615;42.702;23.314;2023-12-20T03:21:14;101.95;;;51.15;;
20910;SDS011;10615;42.702;23.314;2023-12-20T03:22:14;107.97;;;54.53;;
20910;SDS011;10615;42.702;23.314;2023-12-20T03:23:15;102.70;;;51.55;;
20910;SDS011;10615;42.702;23.314;2023-12-20T03:24:16;99.22;;;51.42;;
20910;SDS011;10615;42.702;23.314;2023-12-20T03:25:17;106.03;;;52.38;;
20910;SDS011;10615;42.702;23.314;2023-12-20T03:26:17;108.75;;;52.97;;
20910;SDS011;10615;42.702;23.314;2023-12-20T03:27:19;105.07;;;52.15;;
20910;SDS011;10615;42.702;23.314;2023-12-20T03:28:19;105.75;;;52.72;;
20910;SDS011;10615;42.702;23.314;2023-12-20T03:29:20;100.65;;;51.22;;
20910;SDS011;10615;42.702;23.314;2023-12-20T03:30:21;111.85;;;53.03;;
20910;SDS011;10615;42.702;23.314;2023-12-20T03:31:22;100.90;;;49.67;;
20910;SDS011;10615;42.702;23.314;2023-12-20T03:32:22;105.43;;;50.80;;
20910;SDS011;10615;42.702;23.314;2023-12-20T03:33:23;105.45;;;50.55;;
20910;SDS011;10615;42.702;23.314;2023-12-20T03:34:24;99.55;;;50.13;;
20910;SDS011;10615;42.702;23.314;2023-12-20T03:35:24;106.22;;;50.45;;
20910;SDS011;10615;42.702;23.314;2023-12-20T03:36:25;104.45;;;52.05;;
20910;SDS011;10615;42.702;23.314;2023-12-20T03:37:26;96.22;;;48.90;;
20910;SDS011;10615;42.702;23.314;2023-12-20T03:38:27;99.72;;;49.75;;
20910;SDS011;10615;42.702;23.314;2023-12-20T03:39:27;100.90;;;52.42;;
20910;SDS011;10615;42.702;23.314;2023-12-20T03:40:28;106.43;;;50.85;;
20910;SDS011;10615;42.702;23.314;2023-12-20T03:41:29;99.38;;;48.97;;
20910;SDS011;10615;42.702;23.314;2023-12-20T03:42:29;94.40;;;50.63;;
20910;SDS011;10615;42.702;23.314;2023-12-20T03:43:30;99.78;;;50.28;;
20910;SDS011;10615;42.702;23.314;2023-12-20T03:44:31;98.90;;;49.95;;
20910;SDS011;10615;42.702;23.314;2023-12-20T03:45:32;95.53;;;51.28;;
20910;SDS011;10615;42.702;23.314;2023-12-20T03:46:33;98.80;;;49.55;;
20910;SDS011;10615;42.702;23.314;2023-12-20T03:47:52;98.90;;;49.10;;
20910;SDS011;10615;42.702;23.314;2023-12-20T03:48:56;97.50;;;48.17;;
20910;SDS011;10615;42.702;23.314;2023-12-20T03:49:57;109.50;;;50.95;;
20910;SDS011;10615;42.702;23.314;2023-12-20T03:50:57;97.90;;;49.50;;
20910;SDS011;10615;42.702;23.314;2023-12-20T03:51:58;99.85;;;49.20;;
20910;SDS011;10615;42.702;23.314;2023-12-20T03:52:59;102.78;;;50.63;;
20910;SDS011;10615;42.702;23.314;2023-12-20T03:54:00;98.05;;;49.45;;
20910;SDS011;10615;42.702;23.314;2023-12-20T03:55:00;99.00;;;50.08;;
20910;SDS011;10615;42.702;23.314;2023-12-20T03:56:01;102.18;;;47.85;;
20910;SDS011;10615;42.702;23.314;2023-12-20T03:57:02;98.45;;;50.35;;
20910;SDS011;10615;42.702;23.314;2023-12-20T03:58:03;113.72;;;48.70;;
20910;SDS011;10615;42.702;23.314;2023-12-20T03:59:04;100.97;;;50.00;;
20910;SDS011;10615;42.702;23.314;2023-12-20T04:00:05;95.13;;;48.63;;
20910;SDS011;10615;42.702;23.314;2023-12-20T04:01:10;106.22;;;48.28;;
20910;SDS011;10615;42.702;23.314;2023-12-20T04:02:13;92.65;;;48.47;;
20910;SDS011;10615;42.702;23.314;2023-12-20T04:03:14;94.15;;;49.22;;
20910;SDS011;10615;42.702;23.314;2023-12-20T04:04:15;96.88;;;49.17;;
20910;SDS011;10615;42.702;23.314;2023-12-20T04:05:16;104.05;;;51.45;;
20910;SDS011;10615;42.702;23.314;2023-12-20T04:06:19;96.88;;;49.08;;
20910;SDS011;10615;42.702;23.314;2023-12-20T04:07:20;95.20;;;49.03;;
20910;SDS011;10615;42.702;23.314;2023-12-20T04:08:21;96.78;;;48.45;;
20910;SDS011;10615;42.702;23.314;2023-12-20T04:09:22;103.00;;;48.78;;
20910;SDS011;10615;42.702;23.314;2023-12-20T04:10:22;92.68;;;48.65;;
20910;SDS011;10615;42.702;23.314;2023-12-20T04:11:23;96.93;;;46.25;;
20910;SDS011;10615;42.702;23.314;2023-12-20T04:12:24;84.38;;;46.67;;
20910;SDS011;10615;42.702;23.314;2023-12-20T04:13:24;98.53;;;48.03;;
20910;SDS011;10615;42.702;23.314;2023-12-20T04:14:25;93.07;;;47.55;;
20910;SDS011;10615;42.702;23.314;2023-12-20T04:15:26;101.35;;;48.25;;
20910;SDS011;10615;42.702;23.314;2023-12-20T04:16:27;106.47;;;48.05;;
20910;SDS011;10615;42.702;23.314;2023-12-20T04:17:27;108.45;;;49.03;;
20910;SDS011;10615;42.702;23.314;2023-12-20T04:18:28;98.78;;;48.38;;
20910;SDS011;10615;42.702;23.314;2023-12-20T04:19:29;95.38;;;47.40;;
20910;SDS011;10615;42.702;23.314;2023-12-20T04:20:30;98.10;;;47.60;;
20910;SDS011;10615;42.702;23.314;2023-12-20T04:21:30;101.45;;;46.65;;
20910;SDS011;10615;42.702;23.314;2023-12-20T04:22:31;93.35;;;47.10;;
20910;SDS011;10615;42.702;23.314;2023-12-20T04:23:32;96.10;;;48.15;;
20910;SDS011;10615;42.702;23.314;2023-12-20T04:24:32;96.10;;;49.47;;
20910;SDS011;10615;42.702;23.314;2023-12-20T04:25:33;124.15;;;47.70;;
20910;SDS011;10615;42.702;23.314;2023-12-20T04:26:34;104.05;;;46.22;;
20910;SDS011;10615;42.702;23.314;2023-12-20T04:27:35;95.13;;;46.15;;
20910;SDS011;10615;42.702;23.314;2023-12-20T04:28:35;95.43;;;47.92;;
20910;SDS011;10615;42.702;23.314;2023-12-20T04:29:36;88.40;;;46.50;;
20910;SDS011;10615;42.702;23.314;2023-12-20T04:30:37;110.43;;;48.45;;
20910;SDS011;10615;42.702;23.314;2023-12-20T04:31:38;92.95;;;48.40;;
20910;SDS011;10615;42.702;23.314;2023-12-20T04:32:39;115.00;;;48.95;;
20910;SDS011;10615;42.702;23.314;2023-12-20T04:33:39;96.65;;;48.88;;
20910;SDS011;10615;42.702;23.314;2023-12-20T04:34:40;98.25;;;49.35;;
20910;SDS011;10615;42.702;23.314;2023-12-20T04:35:41;186.73;;;85.40;;
20910;SDS011;10615;42.702;23.314;2023-12-20T04:36:42;313.45;;;138.48;;
20910;SDS011;10615;42.702;23.314;2023-12-20T04:37:43;219.13;;;98.57;;
20910;SDS011;10615;42.702;23.314;2023-12-20T04:38:44;132.73;;;61.45;;
20910;SDS011;10615;42.702;23.314;2023-12-20T04:39:45;112.22;;;54.33;;
20910;SDS011;10615;42.702;23.314;2023-12-20T04:40:46;108.00;;;54.72;;
20910;SDS011;10615;42.702;23.314;2023-12-20T04:41:48;105.50;;;51.20;;
20910;SDS011;10615;42.702;23.314;2023-12-20T04:42:50;98.10;;;50.50;;
20910;SDS011;10615;42.702;23.314;2023-12-20T04:43:50;100.47;;;49.60;;
20910;SDS011;10615;42.702;23.314;2023-12-20T04:44:51;96.43;;;50.95;;
20910;SDS011;10615;42.702;23.314;2023-12-20T04:45:52;98.38;;;49.05;;
20910;SDS011;10615;42.702;23.314;2023-12-20T04:46:53;89.35;;;47.33;;
20910;SDS011;10615;42.702;23.314;2023-12-20T04:47:54;99.07;;;49.83;;
20910;SDS011;10615;42.702;23.314;2023-12-20T04:48:55;94.93;;;48.03;;
20910;SDS011;10615;42.702;23.314;2023-12-20T04:49:56;95.68;;;47.70;;
20910;SDS011;10615;42.702;23.314;2023-12-20T04:50:56;102.72;;;47.83;;
20910;SDS011;10615;42.702;23.314;2023-12-20T04:51:57;91.50;;;47.70;;
20910;SDS011;10615;42.702;23.314;2023-12-20T04:52:58;94.18;;;47.00;;
20910;SDS011;10615;42.702;23.314;2023-12-20T04:53:59;92.40;;;47.65;;
20910;SDS011;10615;42.702;23.314;2023-12-20T04:55:00;94.10;;;47.10;;
20910;SDS011;10615;42.702;23.314;2023-12-20T04:56:00;101.40;;;47.63;;
20910;SDS011;10615;42.702;23.314;2023-12-20T04:57:01;91.30;;;46.20;;
20910;SDS011;10615;42.702;23.314;2023-12-20T04:58:02;100.35;;;49.15;;
20910;SDS011;10615;42.702;23.314;2023-12-20T04:59:03;99.93;;;49.42;;
20910;SDS011;10615;42.702;23.314;2023-12-20T05:00:04;115.53;;;61.50;;
20910;SDS011;10615;42.702;23.314;2023-12-20T05:01:05;113.38;;;58.25;;
20910;SDS011;10615;42.702;23.314;2023-12-20T05:02:07;95.72;;;51.25;;
20910;SDS011;10615;42.702;23.314;2023-12-20T05:03:07;99.45;;;52.20;;
20910;SDS011;10615;42.702;23.314;2023-12-20T05:04:09;102.63;;;50.63;;
20910;SDS011;10615;42.702;23.314;2023-12-20T05:05:10;94.03;;;50.00;;
20910;SDS011;10615;42.702;23.314;2023-12-20T05:06:10;92.90;;;47.47;;
20910;SDS011;10615;42.702;23.314;2023-12-20T05:07:11;89.40;;;45.85;;
20910;SDS011;10615;42.702;23.314;2023-12-20T05:08:12;94.35;;;46.90;;
20910;SDS011;10615;42.702;23.314;2023-12-20T05:09:12;93.93;;;44.53;;
20910;SDS011;10615;42.702;23.314;2023-12-20T05:10:13;87.10;;;45.03;;
20910;SDS011;10615;42.702;23.314;2023-12-20T05:11:14;88.15;;;45.10;;
20910;SDS011;10615;42.702;23.314;2023-12-20T05:12:16;100.80;;;46.70;;
20910;SDS011;10615;42.702;23.314;2023-12-20T05:13:16;97.53;;;47.45;;
20910;SDS011;10615;42.702;23.314;2023-12-20T05:14:17;111.97;;;43.42;;
20910;SDS011;10615;42.702;23.314;2023-12-20T05:15:18;109.05;;;45.58;;
20910;SDS011;10615;42.702;23.314;2023-12-20T05:16:19;85.70;;;45.28;;
20910;SDS011;10615;42.702;23.314;2023-12-20T05:17:20;84.00;;;44.10;;
20910;SDS011;10615;42.702;23.314;2023-12-20T05:18:21;88.13;;;45.08;;
20910;SDS011;10615;42.702;23.314;2023-12-20T05:19:21;86.57;;;45.30;;
20910;SDS011;10615;42.702;23.314;2023-12-20T05:20:23;83.80;;;41.95;;
20910;SDS011;10615;42.702;23.314;2023-12-20T05:21:23;84.38;;;43.08;;
20910;SDS011;10615;42.702;23.314;2023-12-20T05:22:24;90.22;;;42.22;;
20910;SDS011;10615;42.702;23.314;2023-12-20T05:23:25;86.68;;;43.97;;
20910;SDS011;10615;42.702;23.314;2023-12-20T05:24:26;83.35;;;44.13;;
20910;SDS011;10615;42.702;23.314;2023-12-20T05:25:26;77.82;;;43.75;;
20910;SDS011;10615;42.702;23.314;2023-12-20T05:26:27;82.63;;;42.25;;
20910;SDS011;10615;42.702;23.314;2023-12-20T05:27:29;88.97;;;44.53;;
20910;SDS011;10615;42.702;23.314;2023-12-20T05:28:30;86.57;;;44.88;;
20910;SDS011;10615;42.702;23.314;2023-12-20T05:29:31;87.13;;;43.80;;
20910;SDS011;10615;42.702;23.314;2023-12-20T05:30:31;81.45;;;41.33;;
20910;SDS011;10615;42.702;23.314;2023-12-20T05:31:32;84.07;;;42.97;;
20910;SDS011;10615;42.702;23.314;2023-12-20T05:32:33;87.20;;;44.33;;
20910;SDS011;10615;42.702;23.314;2023-12-20T05:33:34;85.68;;;43.30;;
20910;SDS011;10615;42.702;23.314;2023-12-20T05:34:35;85.90;;;43.92;;
20910;SDS011;10615;42.702;23.314;2023-12-20T05:35:36;82.50;;;44.60;;
20910;SDS011;10615;42.702;23.314;2023-12-20T05:36:37;89.78;;;43.53;;
20910;SDS011;10615;42.702;23.314;2023-12-20T05:37:39;86.20;;;45.17;;
20910;SDS011;10615;42.702;23.314;2023-12-20T05:38:39;83.32;;;44.47;;
20910;SDS011;10615;42.702;23.314;2023-12-20T05:39:40;89.28;;;44.28;;
20910;SDS011;10615;42.702;23.314;2023-12-20T05:40:41;86.00;;;42.97;;
20910;SDS011;10615;42.702;23.314;2023-12-20T05:41:42;80.18;;;43.78;;
20910;SDS011;10615;42.702;23.314;2023-12-20T05:42:42;89.13;;;43.90;;
20910;SDS011;10615;42.702;23.314;2023-12-20T05:43:43;87.38;;;46.13;;
20910;SDS011;10615;42.702;23.314;2023-12-20T05:44:44;96.88;;;46.45;;
20910;SDS011;10615;42.702;23.314;2023-12-20T05:45:45;98.20;;;47.22;;
20910;SDS011;10615;42.702;23.314;2023-12-20T05:46:46;96.40;;;44.58;;